Time;durP1;ratioP1;P1;durP2;ratioP2;P2;SDS_P1;SDS_P2;PMS_P1;PMS_P2;Temp;Humidity;BMP_temperature;BMP_pressure;BME280_temperature;BME280_humidity;BME280_pressure;Samples;Min_cycle;Max_cycle;Signal;HPM_P1;HPM_P2
2022/05/03 00:01:50;;;;;;;;;;;11.40;99.90;;;;;;5103526;28;20238;-71
2022/05/03 00:04:22;;;;;;;;;;;11.30;99.90;;;;;;5103790;28;19950;-71
2022/05/03 00:06:52;;;;;;;;;;;11.30;99.90;;;;;;5103823;28;19920;-71
2022/05/03 00:09:23;;;;;;;;;;;11.30;99.90;;;;;;5103571;28;19920;-71
2022/05/03 00:11:52;;;;;;;;;;;11.20;99.90;;;;;;5103381;28;20154;-71
2022/05/03 00:14:21;;;;;;;;;;;11.20;99.90;;;;;;5103608;28;19963;-71
2022/05/03 00:16:49;;;;;;;;;;;11.10;99.90;;;;;;5102308;28;19920;-71
2022/05/03 00:19:16;;;;;;;;;;;11.10;99.90;;;;;;5099631;28;19920;-71
2022/05/03 00:21:43;;;;;;;;;;;11.10;99.90;;;;;;5092515;28;19939;-71
2022/05/03 00:24:09;;;;;;;;;;;11.10;99.90;;;;;;5103274;28;20204;-71
2022/05/03 00:26:37;;;;;;;;;;;11.00;99.90;;;;;;5103391;28;20174;-71
2022/05/03 00:29:04;;;;;;;;;;;11.00;99.90;;;;;;5103169;28;19927;-71
2022/05/03 00:31:31;;;;;;;;;;;11.00;99.90;;;;;;5094432;28;19920;-71
2022/05/03 00:33:58;;;;;;;;;;;11.00;99.90;;;;;;5103345;28;20207;-71
2022/05/03 00:36:25;;;;;;;;;;;10.90;99.90;;;;;;5103506;28;19920;-70
2022/05/03 00:38:52;;;;;;;;;;;10.90;99.90;;;;;;5096499;28;19925;-71
2022/05/03 00:41:21;;;;;;;;;;;10.90;99.90;;;;;;5101510;28;19920;-70
2022/05/03 00:43:58;;;;;;;;;;;10.80;99.90;;;;;;5103017;28;19934;-70
2022/05/03 00:46:26;;;;;;;;;;;10.80;99.90;;;;;;5103457;28;19924;-71
2022/05/03 00:49:05;;;;;;;;;;;10.70;99.90;;;;;;5103204;28;19927;-70
2022/05/03 00:51:41;;;;;;;;;;;10.60;99.90;;;;;;5102786;28;19920;-70
2022/05/03 00:54:11;;;;;;;;;;;10.60;99.90;;;;;;5103377;28;19931;-69
2022/05/03 00:56:44;;;;;;;;;;;10.50;99.90;;;;;;5103409;28;20138;-70
2022/05/03 00:59:20;;;;;;;;;;;10.50;99.90;;;;;;5103226;28;19920;-71
2022/05/03 01:01:54;;;;;;;;;;;10.40;99.90;;;;;;5102851;28;19926;-69
2022/05/03 01:04:24;;;;;;;;;;;10.40;99.90;;;;;;5103163;28;19953;-69
2022/05/03 01:06:56;;;;;;;;;;;10.30;99.90;;;;;;5103108;28;20249;-69
2022/05/03 01:09:32;;;;;;;;;;;10.30;99.90;;;;;;5094227;28;19943;-69
2022/05/03 01:12:05;;;;;;;;;;;10.30;99.90;;;;;;5103080;28;20131;-71
2022/05/03 01:14:39;;;;;;;;;;;10.30;99.90;;;;;;5102978;28;19920;-71
2022/05/03 01:17:08;;;;;;;;;;;10.30;99.90;;;;;;5102888;28;19920;-71
2022/05/03 01:19:38;;;;;;;;;;;10.30;99.90;;;;;;5102274;28;19920;-72
2022/05/03 01:22:08;;;;;;;;;;;10.30;99.90;;;;;;5101226;28;20230;-70
2022/05/03 01:24:43;;;;;;;;;;;10.20;99.90;;;;;;5103034;28;19927;-70
2022/05/03 01:27:36;;;;;;;;;;;10.20;99.90;;;;;;5103201;28;19920;-70
2022/05/03 01:30:05;;;;;;;;;;;10.10;99.90;;;;;;5043304;28;19927;-70
2022/05/03 01:32:32;;;;;;;;;;;10.10;99.90;;;;;;5102995;28;19927;-70
2022/05/03 01:35:01;;;;;;;;;;;10.00;99.90;;;;;;5102915;28;19942;-71
2022/05/03 01:37:43;;;;;;;;;;;10.00;99.90;;;;;;5105189;28;19927;-70
2022/05/03 01:40:12;;;;;;;;;;;9.90;99.90;;;;;;5105807;28;19920;-70
2022/05/03 01:42:54;;;;;;;;;;;9.90;99.90;;;;;;5106473;28;20114;-70
2022/05/03 01:45:26;;;;;;;;;;;9.80;99.90;;;;;;5102456;28;19926;-69
2022/05/03 01:47:57;;;;;;;;;;;9.80;99.90;;;;;;5106334;28;19955;-70
2022/05/03 01:50:30;;;;;;;;;;;9.80;99.90;;;;;;5105484;28;20093;-70
2022/05/03 01:53:07;;;;;;;;;;;9.80;99.90;;;;;;5106111;28;19920;-70
2022/05/03 01:55:41;;;;;;;;;;;9.80;99.90;;;;;;5106367;28;19920;-69
2022/05/03 01:58:13;;;;;;;;;;;9.80;99.90;;;;;;5106104;28;19920;-69
2022/05/03 02:00:44;;;;;;;;;;;9.70;99.90;;;;;;5105383;28;19920;-69
2022/05/03 02:03:19;;;;;;;;;;;9.60;99.90;;;;;;5105987;28;19926;-70
2022/05/03 02:05:53;;;;;;;;;;;9.50;99.90;;;;;;5105978;28;19927;-69
2022/05/03 02:08:21;;;;;;;;;;;9.50;99.90;;;;;;5106041;28;19924;-70
2022/05/03 02:10:54;;;;;;;;;;;9.40;99.90;;;;;;5105157;28;19926;-69
2022/05/03 02:16:27;;;;;;;;;;;9.50;99.90;;;;;;5072884;28;19916;-70
2022/05/03 02:19:00;;;;;;;;;;;9.40;99.90;;;;;;5105557;28;19924;-69
2022/05/03 02:21:29;;;;;;;;;;;9.40;99.90;;;;;;5102800;28;19928;-69
2022/05/03 02:24:01;;;;;;;;;;;9.40;99.90;;;;;;5105486;28;19926;-70
2022/05/03 02:26:31;;;;;;;;;;;9.40;99.90;;;;;;5105806;28;19927;-69
2022/05/03 02:29:00;;;;;;;;;;;9.40;99.90;;;;;;5105415;28;19920;-70
2022/05/03 02:31:31;;;;;;;;;;;9.40;99.90;;;;;;5105222;28;19927;-70
2022/05/03 02:34:01;;;;;;;;;;;9.30;99.90;;;;;;5105144;28;20115;-70
2022/05/03 02:36:28;;;;;;;;;;;9.30;99.90;;;;;;5105540;28;19921;-70
2022/05/03 02:38:59;;;;;;;;;;;9.30;99.90;;;;;;5105601;28;19942;-70
2022/05/03 02:41:28;;;;;;;;;;;9.20;99.90;;;;;;5105050;28;19924;-70
2022/05/03 02:43:56;;;;;;;;;;;9.20;99.90;;;;;;5105382;28;19919;-70
2022/05/03 02:46:54;;;;;;;;;;;9.10;99.90;;;;;;5105112;28;19927;-70
2022/05/03 02:49:24;;;;;;;;;;;9.10;99.90;;;;;;5104955;28;19942;-70
2022/05/03 02:51:53;;;;;;;;;;;9.00;99.90;;;;;;5105187;28;19926;-70
2022/05/03 02:54:26;;;;;;;;;;;9.00;99.90;;;;;;5104764;28;19920;-69
2022/05/03 02:56:57;;;;;;;;;;;8.90;99.90;;;;;;5104860;28;20216;-70
2022/05/03 03:01:47;;;;;;;;;;;9.00;99.90;;;;;;5104722;28;19962;-70
2022/05/03 03:02:22;;;;;;;;;;;9.00;99.90;;;;;;5104651;28;20205;-70
2022/05/03 03:04:53;;;;;;;;;;;8.90;99.90;;;;;;5105292;28;19973;-70
2022/05/03 03:07:20;;;;;;;;;;;8.90;99.90;;;;;;5104825;28;19920;-70
2022/05/03 03:09:49;;;;;;;;;;;8.90;99.90;;;;;;5103932;28;19935;-70
2022/05/03 03:12:25;;;;;;;;;;;8.80;99.90;;;;;;5104765;28;19924;-70
2022/05/03 03:14:56;;;;;;;;;;;8.80;99.90;;;;;;5104893;28;19920;-70
2022/05/03 03:17:29;;;;;;;;;;;8.80;99.90;;;;;;5104758;28;19924;-70
2022/05/03 03:20:04;;;;;;;;;;;8.80;99.90;;;;;;5103822;28;19947;-70
2022/05/03 03:22:31;;;;;;;;;;;8.70;99.90;;;;;;5102408;28;19920;-70
2022/05/03 03:24:59;;;;;;;;;;;8.70;99.90;;;;;;5104504;28;20212;-70
2022/05/03 03:27:27;;;;;;;;;;;8.70;99.90;;;;;;5104665;28;19927;-70
2022/05/03 03:29:55;;;;;;;;;;;8.60;99.90;;;;;;5103710;28;19920;-70
2022/05/03 03:32:25;;;;;;;;;;;8.60;99.90;;;;;;5103767;28;19920;-70
2022/05/03 03:34:54;;;;;;;;;;;8.60;99.90;;;;;;5104421;28;20123;-70
2022/05/03 03:37:23;;;;;;;;;;;8.60;99.90;;;;;;5104946;28;19920;-70
2022/05/03 03:39:49;;;;;;;;;;;8.60;99.90;;;;;;5103450;28;19924;-70
2022/05/03 03:42:16;;;;;;;;;;;8.60;99.90;;;;;;5103960;28;19926;-70
2022/05/03 03:44:43;;;;;;;;;;;8.60;99.90;;;;;;5104049;28;19920;-70
2022/05/03 03:47:10;;;;;;;;;;;8.60;99.90;;;;;;5104071;28;19926;-70
2022/05/03 03:49:38;;;;;;;;;;;8.50;99.90;;;;;;5103554;28;20109;-70
2022/05/03 03:52:04;;;;;;;;;;;8.50;99.90;;;;;;5103958;28;20144;-70
2022/05/03 03:54:31;;;;;;;;;;;8.50;99.90;;;;;;5103896;28;19926;-70
2022/05/03 03:56:58;;;;;;;;;;;8.50;99.90;;;;;;5103914;28;20226;-70
2022/05/03 03:59:30;;;;;;;;;;;8.50;99.90;;;;;;5103343;28;19927;-70
2022/05/03 04:01:57;;;;;;;;;;;8.50;99.90;;;;;;5103918;28;19928;-70
2022/05/03 04:04:26;;;;;;;;;;;8.40;99.90;;;;;;5103830;28;19926;-70
2022/05/03 04:06:54;;;;;;;;;;;8.30;99.90;;;;;;5099922;28;19926;-70
2022/05/03 04:09:21;;;;;;;;;;;8.20;99.90;;;;;;5100103;28;19920;-70
2022/05/03 04:11:48;;;;;;;;;;;8.10;99.90;;;;;;5090484;28;20269;-70
2022/05/03 04:14:15;;;;;;;;;;;8.10;99.90;;;;;;5099875;28;19943;-71
2022/05/03 04:16:42;;;;;;;;;;;8.10;99.90;;;;;;5094806;28;19920;-69
2022/05/03 04:19:09;;;;;;;;;;;8.10;99.90;;;;;;5092312;28;19927;-69
2022/05/03 04:21:35;;;;;;;;;;;8.10;99.90;;;;;;5087782;28;19951;-69
2022/05/03 04:24:03;;;;;;;;;;;8.20;99.90;;;;;;5083349;28;19935;-69
2022/05/03 04:26:30;;;;;;;;;;;8.10;99.90;;;;;;5087289;28;19920;-69
2022/05/03 04:28:57;;;;;;;;;;;8.10;99.90;;;;;;5096329;28;20223;-69
2022/05/03 04:31:25;;;;;;;;;;;8.10;99.90;;;;;;5103191;28;19942;-69
2022/05/03 04:33:51;;;;;;;;;;;8.10;99.90;;;;;;5103150;28;19920;-69
2022/05/03 04:36:18;;;;;;;;;;;8.10;99.90;;;;;;5103270;28;19923;-68
2022/05/03 04:38:45;;;;;;;;;;;8.10;99.90;;;;;;5103520;28;19926;-68
2022/05/03 04:41:13;;;;;;;;;;;8.10;99.90;;;;;;5102617;28;19920;-69
2022/05/03 04:43:42;;;;;;;;;;;8.10;99.90;;;;;;5101749;28;20148;-68
2022/05/03 04:46:10;;;;;;;;;;;8.20;99.90;;;;;;5100825;28;19920;-69
2022/05/03 04:48:37;;;;;;;;;;;8.10;99.90;;;;;;5100418;28;19958;-68
2022/05/03 04:51:04;;;;;;;;;;;8.20;99.90;;;;;;5102712;28;19920;-71
2022/05/03 04:53:30;;;;;;;;;;;8.20;99.90;;;;;;5103585;28;19987;-68
2022/05/03 04:55:57;;;;;;;;;;;8.30;99.90;;;;;;5100966;28;19927;-68
2022/05/03 04:58:25;;;;;;;;;;;8.30;99.90;;;;;;5103522;28;19920;-69
2022/05/03 05:00:52;;;;;;;;;;;8.30;99.90;;;;;;5102510;28;19920;-69
2022/05/03 05:03:19;;;;;;;;;;;8.30;99.90;;;;;;5102547;28;19920;-68
2022/05/03 05:05:46;;;;;;;;;;;8.30;99.90;;;;;;5103666;28;20160;-68
2022/05/03 05:08:12;;;;;;;;;;;8.30;99.90;;;;;;5103009;28;19920;-68
2022/05/03 05:10:39;;;;;;;;;;;8.30;99.90;;;;;;5102633;28;20208;-68
2022/05/03 05:13:06;;;;;;;;;;;8.30;99.90;;;;;;5106310;28;20140;-69
2022/05/03 05:15:33;;;;;;;;;;;8.40;99.90;;;;;;5107355;28;20213;-69
2022/05/03 05:18:00;;;;;;;;;;;8.40;99.90;;;;;;5106836;28;19920;-69
2022/05/03 05:20:27;;;;;;;;;;;8.50;99.90;;;;;;5106547;28;19924;-70
2022/05/03 05:22:54;;;;;;;;;;;8.60;99.90;;;;;;5106706;28;19927;-68
2022/05/03 05:25:21;;;;;;;;;;;8.60;99.90;;;;;;5104499;28;19983;-68
2022/05/03 05:27:49;;;;;;;;;;;8.60;99.90;;;;;;5107121;28;20092;-69
2022/05/03 05:30:15;;;;;;;;;;;8.70;99.90;;;;;;5105749;28;19991;-68
2022/05/03 05:32:43;;;;;;;;;;;8.70;99.90;;;;;;5106950;28;19966;-69
2022/05/03 05:35:10;;;;;;;;;;;8.80;99.90;;;;;;5106523;28;19920;-68
2022/05/03 05:37:37;;;;;;;;;;;8.90;99.90;;;;;;5106839;28;19920;-69
2022/05/03 05:40:04;;;;;;;;;;;9.00;99.90;;;;;;5105608;28;19920;-68
2022/05/03 05:42:30;;;;;;;;;;;9.10;99.90;;;;;;5106284;28;19920;-68
2022/05/03 05:44:57;;;;;;;;;;;9.00;99.90;;;;;;5106600;28;19920;-68
2022/05/03 05:47:24;;;;;;;;;;;9.10;99.90;;;;;;5106246;28;19928;-69
2022/05/03 05:49:54;;;;;;;;;;;9.10;99.90;;;;;;5103525;28;19920;-71
2022/05/03 05:55:05;;;;;;;;;;;9.30;99.90;;;;;;5106198;28;19957;-69
2022/05/03 05:57:32;;;;;;;;;;;9.40;99.90;;;;;;5106201;28;19992;-69
2022/05/03 05:59:59;;;;;;;;;;;9.40;99.90;;;;;;5105554;28;19919;-70
2022/05/03 06:02:26;;;;;;;;;;;9.40;99.90;;;;;;5106547;28;19926;-69
2022/05/03 06:04:54;;;;;;;;;;;9.40;99.90;;;;;;5103959;28;20158;-69
2022/05/03 06:07:21;;;;;;;;;;;9.40;99.90;;;;;;5106432;28;19927;-69
2022/05/03 06:09:47;;;;;;;;;;;9.50;99.90;;;;;;5105287;28;19934;-69
2022/05/03 06:12:14;;;;;;;;;;;9.70;99.90;;;;;;5105800;28;19930;-69
2022/05/03 06:14:40;;;;;;;;;;;9.70;99.90;;;;;;5106077;28;19920;-69
2022/05/03 06:17:07;;;;;;;;;;;9.90;99.90;;;;;;5104244;28;20150;-70
2022/05/03 06:19:34;;;;;;;;;;;9.90;99.90;;;;;;5105234;28;19920;-69
2022/05/03 06:22:02;;;;;;;;;;;10.00;99.90;;;;;;5105581;28;19927;-69
2022/05/03 06:24:29;;;;;;;;;;;10.20;99.90;;;;;;5105460;28;19926;-69
2022/05/03 06:26:55;;;;;;;;;;;10.30;99.90;;;;;;5105779;28;20204;-69
2022/05/03 06:29:22;;;;;;;;;;;10.30;99.90;;;;;;5104944;28;20025;-69
2022/05/03 06:31:49;;;;;;;;;;;10.40;99.90;;;;;;5105159;28;19983;-68
2022/05/03 06:34:15;;;;;;;;;;;10.50;99.90;;;;;;5105360;28;19920;-69
2022/05/03 06:36:42;;;;;;;;;;;10.60;99.90;;;;;;5105647;28;19999;-69
2022/05/03 06:39:10;;;;;;;;;;;10.80;99.90;;;;;;5104990;28;20212;-69
2022/05/03 06:41:37;;;;;;;;;;;10.80;99.90;;;;;;5105074;28;19987;-70
2022/05/03 06:44:03;;;;;;;;;;;10.90;99.90;;;;;;5088675;28;19921;-71
2022/05/03 06:46:30;;;;;;;;;;;11.00;99.90;;;;;;5095383;28;19950;-70
2022/05/03 06:48:57;;;;;;;;;;;11.10;99.90;;;;;;5087326;28;19920;-68
2022/05/03 06:51:23;;;;;;;;;;;11.20;99.90;;;;;;5104132;28;19926;-69
2022/05/03 06:53:50;;;;;;;;;;;11.30;99.90;;;;;;5142849;22;19920;-95
2022/05/03 06:56:19;;;;;;;;;;;11.40;99.90;;;;;;5139637;28;19954;-96
2022/05/03 06:58:45;;;;;;;;;;;11.60;99.90;;;;;;5121114;28;19921;-95
2022/05/03 07:01:13;;;;;;;;;;;11.70;99.90;;;;;;5115509;22;20222;-65
2022/05/03 07:03:40;;;;;;;;;;;11.90;99.90;;;;;;5115633;28;19919;-65
2022/05/03 07:06:07;;;;;;;;;;;12.00;99.90;;;;;;5125085;28;19920;-66
2022/05/03 07:08:34;;;;;;;;;;;12.20;99.90;;;;;;5123282;28;19920;-65
2022/05/03 07:11:00;;;;;;;;;;;12.20;99.90;;;;;;5122382;28;19920;-65
2022/05/03 07:13:28;;;;;;;;;;;12.40;99.90;;;;;;5124813;28;19928;-66
2022/05/03 07:15:56;;;;;;;;;;;12.50;99.90;;;;;;5124664;28;19926;-65
2022/05/03 07:23:51;;;;;;;;;;;12.90;99.90;;;;;;5104159;28;19923;-65
2022/05/03 07:26:18;;;;;;;;;;;13.00;99.90;;;;;;5104509;28;19920;-66
2022/05/03 07:28:48;;;;;;;;;;;13.10;99.90;;;;;;5104324;28;19924;-66
2022/05/03 07:31:15;;;;;;;;;;;13.20;99.90;;;;;;5103757;28;19927;-65
2022/05/03 07:33:42;;;;;;;;;;;13.30;99.90;;;;;;5103268;28;19926;-65
2022/05/03 07:36:08;;;;;;;;;;;13.40;99.90;;;;;;5103833;28;20257;-68
2022/05/03 07:38:35;;;;;;;;;;;13.50;99.90;;;;;;5103930;28;20135;-64
2022/05/03 07:41:02;;;;;;;;;;;13.70;99.90;;;;;;5103243;28;20149;-66
2022/05/03 07:43:28;;;;;;;;;;;13.70;99.90;;;;;;5098319;28;19920;-66
2022/05/03 07:45:56;;;;;;;;;;;13.80;99.90;;;;;;5089059;28;20175;-65
2022/05/03 07:48:23;;;;;;;;;;;13.90;99.90;;;;;;5103811;28;19920;-65
2022/05/03 07:50:49;;;;;;;;;;;14.00;99.90;;;;;;5102270;28;19920;-65
2022/05/03 07:53:17;;;;;;;;;;;14.10;99.90;;;;;;5101354;28;19927;-65
2022/05/03 07:55:44;;;;;;;;;;;14.10;99.90;;;;;;5103810;28;19955;-67
2022/05/03 07:58:11;;;;;;;;;;;14.30;99.90;;;;;;5104098;28;19923;-65
2022/05/03 08:00:37;;;;;;;;;;;14.40;99.90;;;;;;5103038;28;19928;-66
2022/05/03 08:03:05;;;;;;;;;;;14.50;99.90;;;;;;5103614;28;19920;-66
2022/05/03 08:05:32;;;;;;;;;;;14.60;99.90;;;;;;5103919;28;19928;-66
2022/05/03 08:07:58;;;;;;;;;;;14.60;99.90;;;;;;5103039;28;19934;-65
2022/05/03 08:10:25;;;;;;;;;;;14.70;99.90;;;;;;5103041;28;19926;-66
2022/05/03 08:12:52;;;;;;;;;;;14.70;99.90;;;;;;5103588;28;19983;-65
2022/05/03 08:15:19;;;;;;;;;;;14.80;99.90;;;;;;5103402;28;19920;-66
2022/05/03 08:17:45;;;;;;;;;;;14.90;99.90;;;;;;5103493;28;19942;-65
2022/05/03 08:20:14;;;;;;;;;;;14.90;99.90;;;;;;5102720;28;19928;-66
2022/05/03 08:22:41;;;;;;;;;;;15.00;99.90;;;;;;5103479;28;19924;-65
2022/05/03 08:25:08;;;;;;;;;;;15.10;99.90;;;;;;5103628;28;19936;-67
2022/05/03 08:27:36;;;;;;;;;;;15.10;99.90;;;;;;5103405;28;19958;-66
2022/05/03 08:30:02;;;;;;;;;;;15.10;99.90;;;;;;5102504;28;19983;-66
2022/05/03 08:32:29;;;;;;;;;;;15.20;99.90;;;;;;5102971;28;20196;-65
2022/05/03 08:34:56;;;;;;;;;;;15.30;99.90;;;;;;5103180;28;19920;-65
2022/05/03 08:42:53;;;;;;;;;;;15.50;99.90;;;;;;5102686;28;19938;-66
2022/05/03 08:45:20;;;;;;;;;;;15.50;99.90;;;;;;5102893;28;19920;-65
2022/05/03 08:47:47;;;;;;;;;;;15.50;99.90;;;;;;5092886;28;19920;-67
2022/05/03 08:50:14;;;;;;;;;;;15.50;99.90;;;;;;5085859;28;20204;-66
2022/05/03 08:52:47;;;;;;;;;;;15.60;99.90;;;;;;5105218;28;19928;-67
2022/05/03 08:55:14;;;;;;;;;;;15.70;99.90;;;;;;5107067;28;19920;-66
2022/05/03 08:57:42;;;;;;;;;;;15.80;99.90;;;;;;5107079;28;20207;-66
2022/05/03 09:00:09;;;;;;;;;;;15.80;99.90;;;;;;5106415;28;19966;-67
2022/05/03 09:02:41;;;;;;;;;;;16.00;99.90;;;;;;5107307;28;19920;-66
2022/05/03 09:05:08;;;;;;;;;;;16.10;99.90;;;;;;5106954;28;19920;-66
2022/05/03 09:07:36;;;;;;;;;;;16.20;99.90;;;;;;5106957;28;19920;-66
2022/05/03 09:10:15;;;;;;;;;;;16.30;99.90;;;;;;5106401;28;19920;-67
2022/05/03 09:12:42;;;;;;;;;;;16.40;99.90;;;;;;5107067;28;19920;-65
2022/05/03 09:15:09;;;;;;;;;;;16.40;99.90;;;;;;5106936;28;19920;-66
2022/05/03 09:17:36;;;;;;;;;;;16.50;99.90;;;;;;5106668;28;19942;-67
2022/05/03 09:23:46;;;;;;;;;;;16.60;99.90;;;;;;5106375;28;19982;-66
2022/05/03 09:25:47;;;;;;;;;;;16.80;99.90;;;;;;5125989;28;20118;-66
2022/05/03 09:56:38;;;;;;;;;;;17.10;99.90;;;;;;5133263;27;19966;-66
2022/05/03 09:59:08;;;;;;;;;;;17.60;99.90;;;;;;5120867;28;20241;-66
2022/05/03 10:01:35;;;;;;;;;;;17.60;99.90;;;;;;5120572;28;19920;-66
2022/05/03 10:04:02;;;;;;;;;;;17.60;99.90;;;;;;5104589;28;19924;-67
2022/05/03 10:06:29;;;;;;;;;;;17.70;99.90;;;;;;5100439;28;19920;-66
2022/05/03 10:08:56;;;;;;;;;;;17.70;99.90;;;;;;5101193;28;19928;-67
2022/05/03 10:11:26;;;;;;;;;;;17.80;99.90;;;;;;5101090;28;19920;-67
2022/05/03 10:13:54;;;;;;;;;;;17.90;99.90;;;;;;5101321;28;19920;-67
2022/05/03 10:21:55;;;;;;;;;;;18.10;99.90;;;;;;5116800;28;19922;-67
2022/05/03 10:24:22;;;;;;;;;;;18.30;99.90;;;;;;5121788;28;19920;-66
2022/05/03 10:26:56;;;;;;;;;;;18.40;99.90;;;;;;5121041;28;19920;-67
2022/05/03 10:29:25;;;;;;;;;;;18.50;99.90;;;;;;5121377;28;20211;-67
2022/05/03 10:31:54;;;;;;;;;;;18.60;99.90;;;;;;5120340;28;19930;-67
2022/05/03 10:34:39;;;;;;;;;;;18.70;99.90;;;;;;5121035;28;20122;-67
2022/05/03 10:37:05;;;;;;;;;;;18.90;99.90;;;;;;5120734;28;19920;-67
2022/05/03 10:39:32;;;;;;;;;;;19.00;99.90;;;;;;5120752;28;19927;-67
2022/05/03 10:42:00;;;;;;;;;;;19.10;99.90;;;;;;5120832;28;19928;-67
2022/05/03 10:44:56;;;;;;;;;;;19.10;99.90;;;;;;5120492;28;19920;-67
2022/05/03 10:47:39;;;;;;;;;;;19.00;99.90;;;;;;5115426;28;19920;-67
2022/05/03 10:50:26;;;;;;;;;;;19.00;99.90;;;;;;5101620;28;19958;-67
2022/05/03 10:53:11;;;;;;;;;;;19.20;99.90;;;;;;5099908;28;19928;-66
2022/05/03 10:55:58;;;;;;;;;;;19.40;99.90;;;;;;5115549;28;19966;-67
2022/05/03 10:58:27;;;;;;;;;;;19.50;99.90;;;;;;5106265;28;19920;-67
2022/05/03 11:01:04;;;;;;;;;;;19.60;99.90;;;;;;5106466;28;19927;-67
2022/05/03 11:03:31;;;;;;;;;;;19.80;99.90;;;;;;5106449;28;19926;-67
2022/05/03 11:06:17;;;;;;;;;;;20.00;99.90;;;;;;5105839;28;19942;-67
2022/05/03 11:08:58;;;;;;;;;;;20.00;99.90;;;;;;5106280;28;19966;-67
2022/05/03 11:11:42;;;;;;;;;;;20.20;99.90;;;;;;5104898;28;20188;-67
2022/05/03 11:14:35;;;;;;;;;;;20.20;99.90;;;;;;5104961;28;19924;-67
2022/05/03 11:17:05;;;;;;;;;;;20.30;99.90;;;;;;5105314;28;19921;-67
2022/05/03 11:19:33;;;;;;;;;;;20.50;99.90;;;;;;5105420;28;19924;-68
2022/05/03 11:22:00;;;;;;;;;;;20.50;99.90;;;;;;5085281;28;19928;-67
2022/05/03 11:24:27;;;;;;;;;;;20.60;99.90;;;;;;5085579;28;19928;-68
2022/05/03 11:26:55;;;;;;;;;;;20.90;99.90;;;;;;5085347;28;19920;-67
2022/05/03 11:29:27;;;;;;;;;;;21.10;99.90;;;;;;5085314;28;19921;-67
2022/05/03 11:31:54;;;;;;;;;;;21.30;99.90;;;;;;5085514;28;19921;-67
2022/05/03 11:34:22;;;;;;;;;;;21.40;99.90;;;;;;5085230;28;19921;-67
2022/05/03 11:36:50;;;;;;;;;;;21.40;99.90;;;;;;5085189;28;19928;-65
2022/05/03 11:39:16;;;;;;;;;;;21.50;99.90;;;;;;5085361;28;19920;-66
2022/05/03 11:41:43;;;;;;;;;;;21.30;99.90;;;;;;5085357;28;19920;-65
2022/05/03 11:44:10;;;;;;;;;;;21.30;99.90;;;;;;5085104;28;20237;-65
2022/05/03 11:46:39;;;;;;;;;;;21.30;99.90;;;;;;5090292;28;19942;-65
2022/05/03 11:49:07;;;;;;;;;;;21.00;99.90;;;;;;5095662;28;19929;-65
2022/05/03 11:57:06;;;;;;;;;;;20.50;99.90;;;;;;5107243;28;19930;-66
2022/05/03 11:59:33;;;;;;;;;;;20.50;99.90;;;;;;5125599;28;19926;-66
2022/05/03 12:02:13;;;;;;;;;;;20.60;99.90;;;;;;5124889;28;19927;-66
2022/05/03 12:04:40;;;;;;;;;;;20.80;99.90;;;;;;5125450;28;19926;-64
2022/05/03 12:07:07;;;;;;;;;;;21.30;99.90;;;;;;5124847;28;19926;-65
2022/05/03 12:09:35;;;;;;;;;;;21.70;99.90;;;;;;5124708;28;19919;-66
2022/05/03 12:14:47;;;;;;;;;;;22.40;99.90;;;;;;5125263;28;19962;-65
2022/05/03 12:17:15;;;;;;;;;;;22.70;99.90;;;;;;5124975;28;20092;-66
2022/05/03 12:19:42;;;;;;;;;;;22.90;99.90;;;;;;5125159;28;19920;-66
2022/05/03 12:22:10;;;;;;;;;;;23.00;99.90;;;;;;5125049;28;19934;-65
2022/05/03 12:24:37;;;;;;;;;;;23.10;99.90;;;;;;5125035;28;19928;-65
2022/05/03 12:27:11;;;;;;;;;;;23.30;99.90;;;;;;5124565;28;19965;-66
2022/05/03 12:29:42;;;;;;;;;;;23.60;99.90;;;;;;5125114;28;19920;-66
2022/05/03 12:32:12;;;;;;;;;;;23.90;99.90;;;;;;5125046;28;19920;-66
2022/05/03 12:34:41;;;;;;;;;;;23.90;99.90;;;;;;5124901;28;19919;-65
2022/05/03 12:37:08;;;;;;;;;;;23.70;99.90;;;;;;5124474;28;19973;-66
2022/05/03 12:39:36;;;;;;;;;;;23.60;99.90;;;;;;5124704;28;19926;-65
2022/05/03 12:42:03;;;;;;;;;;;23.50;99.90;;;;;;5096906;28;19925;-66
2022/05/03 12:44:31;;;;;;;;;;;23.40;99.90;;;;;;5100053;28;20111;-66
2022/05/03 12:47:04;;;;;;;;;;;23.20;99.70;;;;;;5082351;28;19951;-66
2022/05/03 12:49:31;;;;;;;;;;;23.10;99.90;;;;;;5083562;28;19928;-66
2022/05/03 12:51:59;;;;;;;;;;;23.00;98.80;;;;;;5084018;28;19927;-66
2022/05/03 12:54:25;;;;;;;;;;;23.00;99.90;;;;;;5083892;28;19928;-66
2022/05/03 12:59:36;;;;;;;;;;;22.90;99.70;;;;;;5083428;28;19943;-65
2022/05/03 13:02:03;;;;;;;;;;;22.80;98.80;;;;;;5083592;28;19920;-65
2022/05/03 13:04:31;;;;;;;;;;;22.60;97.80;;;;;;5083760;28;20131;-66
2022/05/03 13:07:00;;;;;;;;;;;22.50;96.60;;;;;;5083214;28;19920;-66
2022/05/03 13:09:27;;;;;;;;;;;22.40;98.20;;;;;;5083578;28;19926;-66
2022/05/03 13:11:53;;;;;;;;;;;22.20;96.20;;;;;;5083457;28;20093;-66
2022/05/03 13:14:20;;;;;;;;;;;22.00;98.00;;;;;;5083403;28;19921;-66
2022/05/03 13:16:48;;;;;;;;;;;21.90;98.80;;;;;;5083129;28;19926;-65
2022/05/03 13:19:15;;;;;;;;;;;21.90;98.90;;;;;;5083214;28;20200;-66
2022/05/03 13:21:42;;;;;;;;;;;21.90;99.40;;;;;;5083242;28;19920;-66
2022/05/03 13:24:11;;;;;;;;;;;21.90;97.80;;;;;;5083475;28;19920;-65
2022/05/03 13:26:39;;;;;;;;;;;21.80;99.10;;;;;;5082765;28;19920;-66
2022/05/03 13:29:07;;;;;;;;;;;21.70;98.50;;;;;;5083142;28;19935;-66
2022/05/03 13:31:34;;;;;;;;;;;21.70;98.20;;;;;;5083349;28;19958;-66
2022/05/03 13:34:01;;;;;;;;;;;21.60;98.30;;;;;;5083432;28;20115;-65
2022/05/03 13:41:57;;;;;;;;;;;21.60;99.90;;;;;;5083403;28;19927;-66
2022/05/03 13:44:25;;;;;;;;;;;21.70;99.90;;;;;;5095080;28;19952;-66
2022/05/03 13:46:52;;;;;;;;;;;21.70;99.30;;;;;;5102361;28;19920;-66
2022/05/03 13:49:19;;;;;;;;;;;21.70;99.90;;;;;;5103230;28;19955;-66
2022/05/03 13:51:46;;;;;;;;;;;21.50;99.90;;;;;;5102996;28;19920;-68
2022/05/03 13:54:14;;;;;;;;;;;21.50;99.90;;;;;;5103597;28;19920;-66
2022/05/03 13:56:40;;;;;;;;;;;21.40;99.90;;;;;;5103148;28;19920;-66
2022/05/03 13:59:07;;;;;;;;;;;21.30;99.90;;;;;;5103615;28;20210;-66
2022/05/03 14:01:34;;;;;;;;;;;21.30;99.90;;;;;;5103036;28;19924;-66
2022/05/03 14:04:02;;;;;;;;;;;21.30;99.90;;;;;;5103181;28;19959;-66
2022/05/03 14:06:28;;;;;;;;;;;21.20;99.90;;;;;;5102587;28;19920;-66
2022/05/03 14:08:55;;;;;;;;;;;21.00;99.30;;;;;;5103246;28;19920;-66
2022/05/03 14:11:23;;;;;;;;;;;20.90;99.90;;;;;;5102995;28;20119;-65
2022/05/03 14:13:50;;;;;;;;;;;20.90;99.90;;;;;;5102722;28;19920;-66
2022/05/03 14:16:17;;;;;;;;;;;20.80;99.80;;;;;;5099603;28;20166;-66
2022/05/03 14:18:44;;;;;;;;;;;20.80;99.60;;;;;;5082923;28;19988;-66
2022/05/03 14:21:11;;;;;;;;;;;20.80;99.90;;;;;;5082682;28;19995;-67
2022/05/03 14:23:38;;;;;;;;;;;20.80;99.90;;;;;;5082970;28;19920;-68
2022/05/03 14:26:06;;;;;;;;;;;20.80;99.60;;;;;;5082477;28;19925;-67
2022/05/03 14:28:34;;;;;;;;;;;20.70;99.90;;;;;;5082955;28;20100;-67
2022/05/03 14:31:01;;;;;;;;;;;20.70;99.90;;;;;;5083591;28;19924;-66
2022/05/03 14:33:28;;;;;;;;;;;20.70;99.90;;;;;;5086416;28;19982;-67
2022/05/03 14:35:55;;;;;;;;;;;20.60;99.90;;;;;;5086132;28;20204;-66
2022/05/03 14:38:21;;;;;;;;;;;20.50;99.90;;;;;;5086612;28;19920;-64
2022/05/03 14:40:48;;;;;;;;;;;20.30;99.90;;;;;;5086743;28;19921;-66
2022/05/03 14:43:16;;;;;;;;;;;20.20;99.90;;;;;;5098005;28;19920;-64
2022/05/03 14:45:44;;;;;;;;;;;20.00;99.90;;;;;;5086153;28;19921;-64
2022/05/03 14:48:11;;;;;;;;;;;19.90;99.90;;;;;;5086240;28;19969;-64
2022/05/03 14:50:38;;;;;;;;;;;19.70;99.90;;;;;;5104165;28;19942;-64
2022/05/03 14:53:05;;;;;;;;;;;19.70;99.90;;;;;;5106372;28;19920;-64
2022/05/03 14:55:31;;;;;;;;;;;19.50;99.90;;;;;;5106120;28;19926;-64
2022/05/03 15:03:35;;;;;;;;;;;19.30;99.90;;;;;;5105841;28;19999;-64
2022/05/03 15:06:02;;;;;;;;;;;19.30;99.90;;;;;;5106255;28;19924;-64
2022/05/03 15:08:29;;;;;;;;;;;19.30;99.90;;;;;;5104294;28;19957;-64
2022/05/03 15:10:56;;;;;;;;;;;19.30;99.90;;;;;;5104587;28;19926;-64
2022/05/03 15:13:22;;;;;;;;;;;19.20;99.90;;;;;;5090773;28;20225;-66
2022/05/03 15:15:49;;;;;;;;;;;19.00;99.90;;;;;;5099269;28;20119;-67
2022/05/03 15:18:17;;;;;;;;;;;18.90;99.90;;;;;;5098408;28;19919;-67
2022/05/03 15:20:43;;;;;;;;;;;18.90;99.90;;;;;;5101651;28;20313;-68
2022/05/03 15:25:55;;;;;;;;;;;18.90;99.90;;;;;;5104825;28;19995;-68
2022/05/03 15:28:22;;;;;;;;;;;18.80;99.90;;;;;;5105361;28;19935;-67
2022/05/03 15:30:50;;;;;;;;;;;18.60;99.90;;;;;;5105898;28;20219;-68
2022/05/03 15:33:18;;;;;;;;;;;18.50;99.90;;;;;;5085441;28;19920;-67
2022/05/03 15:35:46;;;;;;;;;;;18.50;99.90;;;;;;5084663;28;19920;-68
2022/05/03 15:38:12;;;;;;;;;;;18.40;99.90;;;;;;5085686;28;19959;-67
2022/05/03 15:40:39;;;;;;;;;;;18.30;99.90;;;;;;5098975;28;19920;-68
2022/05/03 15:43:07;;;;;;;;;;;18.30;99.90;;;;;;5104151;28;19942;-68
2022/05/03 15:45:35;;;;;;;;;;;18.20;99.90;;;;;;5100586;28;19920;-68
2022/05/03 15:48:02;;;;;;;;;;;18.10;99.90;;;;;;5105855;28;20041;-67
2022/05/03 15:50:30;;;;;;;;;;;18.10;99.90;;;;;;5088983;28;19920;-67